Time;durP1;ratioP1;P1;durP2;ratioP2;P2;SDS_P1;SDS_P2;PMS_P1;PMS_P2;Temp;Humidity;BMP_temperature;BMP_pressure;BME280_temperature;BME280_humidity;BME280_pressure;Samples;Min_cycle;Max_cycle;Signal;HPM_P1;HPM_P2
2021/11/11 00:00:43;;;;;;;;;;;;;;;19.83;57.67;102773.38;5062734;28;1521;-42
2021/11/11 00:03:12;;;;;;;;;;;;;;;19.75;57.77;102767.59;5070958;28;1749;-44
2021/11/11 00:05:48;;;;;;;;;;;;;;;19.65;56.91;102772.63;5061591;28;1321;-42
2021/11/11 00:08:26;;;;;;;;;;;;;;;19.67;56.67;102773.41;5064271;28;1993;-42
2021/11/11 00:11:00;;;;;;;;;;;;;;;19.62;56.87;102772.81;5053154;28;1678;-43
2021/11/11 00:13:29;;;;;;;;;;;;;;;19.80;57.27;102776.25;5057660;28;1365;-42
2021/11/11 00:15:56;;;;;;;;;;;;;;;20.10;55.64;102760.09;5061057;28;2158;-43
2021/11/11 00:18:29;;;;;;;;;;;;;;;20.01;57.06;102752.59;5064700;28;1648;-42
2021/11/11 00:20:58;;;;;;;;;;;;;;;19.83;56.44;102757.25;5063493;28;1638;-42
2021/11/11 00:23:24;;;;;;;;;;;;;;;19.74;56.61;102753.31;5062090;28;1573;-42
2021/11/11 00:26:00;;;;;;;;;;;;;;;19.66;56.61;102751.06;5068551;28;1620;-42
2021/11/11 00:28:29;;;;;;;;;;;;;;;19.63;57.86;102739.63;5066003;28;1921;-43
2021/11/11 00:36:33;;;;;;;;;;;;;;;20.13;56.97;102742.94;5065305;28;1675;-42
2021/11/11 00:41:46;;;;;;;;;;;;;;;19.82;57.29;102736.75;5064842;28;2421;-42
2021/11/11 00:44:49;;;;;;;;;;;;;;;19.73;57.03;102735.47;5068059;28;1670;-43
2021/11/11 00:47:27;;;;;;;;;;;;;;;19.66;56.89;102728.75;5065448;28;1910;-42
2021/11/11 00:53:09;;;;;;;;;;;;;;;19.60;56.48;102726.44;5058163;28;1558;-43
2021/11/11 00:55:38;;;;;;;;;;;;;;;19.83;56.20;102725.91;5062610;28;1773;-42
2021/11/11 00:58:26;;;;;;;;;;;;;;;20.03;55.92;102715.78;5060092;28;1585;-43
2021/11/11 01:00:54;;;;;;;;;;;;;;;19.88;56.52;102711.38;5065658;28;1533;-43
2021/11/11 01:03:31;;;;;;;;;;;;;;;19.77;56.76;102704.81;5067857;28;1709;-42
2021/11/11 01:05:57;;;;;;;;;;;;;;;19.74;57.08;102714.88;5069238;28;1592;-43
2021/11/11 01:08:45;;;;;;;;;;;;;;;19.64;57.22;102701.13;5061523;28;1902;-43
2021/11/11 01:13:56;;;;;;;;;;;;;;;19.55;56.72;102698.97;5059862;28;2425;-43
2021/11/11 01:16:22;;;;;;;;;;;;;;;19.98;56.88;102672.25;5062834;28;1474;-42
2021/11/11 01:19:04;;;;;;;;;;;;;;;20.00;56.76;102684.59;5068864;28;1717;-42
2021/11/11 01:21:37;;;;;;;;;;;;;;;19.76;55.96;102676.25;5067878;28;2107;-42
2021/11/11 01:24:07;;;;;;;;;;;;;;;19.65;56.09;102673.31;5063148;28;1861;-42
2021/11/11 01:26:55;;;;;;;;;;;;;;;19.64;57.14;102655.50;5062712;28;1522;-43
2021/11/11 01:29:42;;;;;;;;;;;;;;;19.59;56.44;102684.44;5066410;28;1784;-42
2021/11/11 01:32:16;;;;;;;;;;;;;;;19.58;56.85;102666.59;5067931;28;1712;-43
2021/11/11 01:34:45;;;;;;;;;;;;;;;19.80;56.82;102650.94;5060857;28;1660;-43
2021/11/11 01:37:23;;;;;;;;;;;;;;;20.02;55.46;102646.91;5064318;28;1474;-43
2021/11/11 01:39:57;;;;;;;;;;;;;;;19.80;56.44;102648.25;5064651;28;1403;-42
2021/11/11 01:45:17;;;;;;;;;;;;;;;19.61;57.03;102644.94;5070466;28;2645;-42
2021/11/11 01:47:44;;;;;;;;;;;;;;;19.56;57.13;102636.31;5068526;28;1910;-43
2021/11/11 01:50:16;;;;;;;;;;;;;;;19.53;56.50;102636.50;5063356;28;1844;-43
2021/11/11 01:52:54;;;;;;;;;;;;;;;19.74;55.69;102643.28;5071121;28;1497;-42
2021/11/11 01:55:24;;;;;;;;;;;;;;;20.02;55.76;102639.72;5056937;28;1755;-43
2021/11/11 01:57:51;;;;;;;;;;;;;;;19.88;55.81;102636.19;5059559;28;1499;-42
2021/11/11 02:00:34;;;;;;;;;;;;;;;19.68;56.63;102640.94;5069140;28;1641;-42
2021/11/11 02:03:05;;;;;;;;;;;;;;;19.64;56.45;102648.31;5060529;28;1544;-44
2021/11/11 02:05:35;;;;;;;;;;;;;;;19.56;56.67;102641.69;5061907;28;1522;-42
2021/11/11 02:08:09;;;;;;;;;;;;;;;19.55;55.92;102637.25;5065072;28;1979;-42
2021/11/11 02:10:47;;;;;;;;;;;;;;;19.53;56.91;102636.50;5063501;28;2061;-42
2021/11/11 02:13:25;;;;;;;;;;;;;;;19.96;56.17;102632.06;5054097;28;1730;-43
2021/11/11 02:15:56;;;;;;;;;;;;;;;19.89;56.38;102637.91;5067990;28;1564;-42
2021/11/11 02:18:31;;;;;;;;;;;;;;;19.76;56.13;102633.28;5070289;28;1628;-42
2021/11/11 02:23:39;;;;;;;;;;;;;;;19.55;56.94;102618.47;5066146;28;2590;-42
2021/11/11 02:26:08;;;;;;;;;;;;;;;19.52;55.93;102637.44;5060600;28;1585;-42
2021/11/11 02:28:47;;;;;;;;;;;;;;;19.55;57.54;102635.44;5070877;28;1968;-42
2021/11/11 02:31:16;;;;;;;;;;;;;;;19.85;56.55;102634.53;5061413;28;1454;-43
2021/11/11 02:33:45;;;;;;;;;;;;;;;19.99;55.19;102644.41;5067284;28;1614;-42
2021/11/11 02:39:04;;;;;;;;;;;;;;;19.59;56.39;102628.91;5063398;28;2566;-42
2021/11/11 02:41:31;;;;;;;;;;;;;;;19.56;56.01;102634.50;5062300;28;1530;-42
2021/11/11 02:44:01;;;;;;;;;;;;;;;19.55;56.37;102634.56;5061415;28;1510;-43
2021/11/11 02:46:27;;;;;;;;;;;;;;;19.65;56.06;102635.75;5067604;28;1746;-42
2021/11/11 02:48:54;;;;;;;;;;;;;;;19.96;55.83;102629.38;5066836;28;1906;-42
2021/11/11 02:51:38;;;;;;;;;;;;;;;19.90;56.35;102626.22;5061491;28;1517;-43
2021/11/11 02:54:13;;;;;;;;;;;;;;;19.70;56.68;102624.75;5060178;28;1501;-42
2021/11/11 02:59:47;;;;;;;;;;;;;;;19.50;56.98;102631.31;5063513;28;1475;-42
2021/11/11 03:02:21;;;;;;;;;;;;;;;19.47;56.57;102643.94;5165930;22;3534;-43
2021/11/11 03:07:30;;;;;;;;;;;;;;;19.86;55.39;102630.91;5055253;28;1906;-42
2021/11/11 03:09:57;;;;;;;;;;;;;;;19.71;55.15;102640.75;5053690;28;1527;-42
2021/11/11 03:12:24;;;;;;;;;;;;;;;19.56;55.49;102630.97;5056993;28;1656;-42
2021/11/11 03:14:56;;;;;;;;;;;;;;;19.53;56.15;102631.13;5068732;28;2007;-43
2021/11/11 03:17:26;;;;;;;;;;;;;;;19.44;56.91;102611.97;5054227;28;1569;-43
2021/11/11 03:19:55;;;;;;;;;;;;;;;19.49;55.55;102630.44;5061563;28;1034;-43
2021/11/11 03:22:35;;;;;;;;;;;;;;;19.90;56.11;102629.75;5060788;28;1754;-43
2021/11/11 03:25:20;;;;;;;;;;;;;;;19.87;55.94;102616.50;5069287;28;1547;-43
2021/11/11 03:27:48;;;;;;;;;;;;;;;19.65;55.24;102616.94;5066226;28;1910;-42
2021/11/11 03:30:20;;;;;;;;;;;;;;;19.57;55.71;102632.66;5049999;28;1820;-43
2021/11/11 03:32:49;;;;;;;;;;;;;;;19.49;56.70;102630.44;5058723;28;991;-43
2021/11/11 03:35:18;;;;;;;;;;;;;;;19.44;55.80;102620.00;5061683;28;1923;-42
2021/11/11 03:37:45;;;;;;;;;;;;;;;19.68;55.32;102616.78;5066932;28;1783;-43
2021/11/11 03:43:10;;;;;;;;;;;;;;;19.64;56.29;102613.41;5051961;28;2431;-42
2021/11/11 03:45:37;;;;;;;;;;;;;;;19.53;55.38;102606.97;5060587;28;1427;-43
2021/11/11 03:48:05;;;;;;;;;;;;;;;19.44;55.96;102609.28;5060785;28;1995;-42
2021/11/11 03:50:55;;;;;;;;;;;;;;;19.48;56.69;102613.50;5068955;28;1829;-42
2021/11/11 03:53:23;;;;;;;;;;;;;;;19.67;55.15;102623.09;5064140;28;1098;-42
2021/11/11 03:55:53;;;;;;;;;;;;;;;19.92;54.32;102597.44;5054241;28;1442;-42
2021/11/11 03:58:29;;;;;;;;;;;;;;;19.71;56.17;102603.19;5059131;28;1791;-42
2021/11/11 04:00:55;;;;;;;;;;;;;;;19.62;55.66;102604.59;5059743;28;1850;-42
2021/11/11 04:03:22;;;;;;;;;;;;;;;19.35;56.07;102604.44;5059010;28;1506;-42
2021/11/11 04:05:54;;;;;;;;;;;;;;;19.13;57.15;102583.44;5066801;28;1398;-42
2021/11/11 04:08:20;;;;;;;;;;;;;;;19.18;58.11;102604.59;5062304;28;1902;-42
2021/11/11 04:10:53;;;;;;;;;;;;;;;19.54;57.69;102589.94;5062504;28;1682;-43
2021/11/11 04:16:11;;;;;;;;;;;;;;;19.22;58.29;102606.16;5064523;28;2320;-43
2021/11/11 04:18:42;;;;;;;;;;;;;;;19.05;58.60;102594.63;5063034;28;1887;-43
2021/11/11 04:21:17;;;;;;;;;;;;;;;19.04;58.98;102602.78;5064237;28;1709;-42
2021/11/11 04:23:46;;;;;;;;;;;;;;;19.43;57.06;102599.47;5061796;28;1812;-42
2021/11/11 04:26:19;;;;;;;;;;;;;;;19.50;57.66;102593.72;5064871;28;1442;-42
2021/11/11 04:28:52;;;;;;;;;;;;;;;19.23;57.82;102594.47;5057487;28;1898;-42
2021/11/11 04:31:27;;;;;;;;;;;;;;;19.10;57.99;102607.75;5062479;28;1744;-43
2021/11/11 04:33:56;;;;;;;;;;;;;;;19.16;58.00;102595.78;5061040;28;2716;-42
2021/11/11 04:36:46;;;;;;;;;;;;;;;19.48;58.05;102591.16;5065975;28;1589;-43
2021/11/11 04:39:39;;;;;;;;;;;;;;;19.90;57.69;102596.69;5053334;28;1591;-42
2021/11/11 04:45:05;;;;;;;;;;;;;;;20.13;56.78;102579.09;5044443;28;2913;-42
2021/11/11 04:47:48;;;;;;;;;;;;;;;20.18;57.15;102561.72;5064003;28;1906;-42
2021/11/11 05:01:38;;;;;;;;;;;;;;;20.25;57.67;102586.34;5069777;28;1700;-42
2021/11/11 05:04:05;;;;;;;;;;;;;;;20.30;56.69;102594.13;5066367;28;1561;-42
2021/11/11 05:06:32;;;;;;;;;;;;;;;20.30;57.93;102594.97;5065413;28;1503;-42
2021/11/11 05:08:59;;;;;;;;;;;;;;;20.26;57.82;102575.50;5060677;28;1984;-42
2021/11/11 05:11:26;;;;;;;;;;;;;;;20.25;58.30;102592.59;5064549;28;1677;-42
2021/11/11 05:13:57;;;;;;;;;;;;;;;20.25;57.92;102589.03;5055064;28;1721;-42
2021/11/11 05:16:24;;;;;;;;;;;;;;;20.25;56.96;102591.72;5068436;28;1590;-42
2021/11/11 05:19:01;;;;;;;;;;;;;;;20.31;57.74;102596.69;5066592;28;1533;-43
2021/11/11 05:21:30;;;;;;;;;;;;;;;20.33;57.19;102600.13;5032438;28;11896;-42
2021/11/11 05:23:56;;;;;;;;;;;;;;;20.20;57.32;102588.47;5067925;28;1562;-42
2021/11/11 05:26:30;;;;;;;;;;;;;;;19.82;59.06;102597.16;5066619;28;1546;-42
2021/11/11 05:29:01;;;;;;;;;;;;;;;19.48;58.90;102607.28;5068153;28;1906;-42
2021/11/11 05:31:28;;;;;;;;;;;;;;;19.88;58.22;102591.41;5062337;28;1653;-42
2021/11/11 05:33:57;;;;;;;;;;;;;;;19.92;58.00;102605.50;5062843;28;1566;-42
2021/11/11 05:39:11;;;;;;;;;;;;;;;19.67;59.43;102601.63;5068749;28;2430;-42
2021/11/11 05:41:45;;;;;;;;;;;;;;;20.11;57.73;102603.34;5065987;28;1714;-42
2021/11/11 05:44:13;;;;;;;;;;;;;;;20.18;57.86;102593.94;5069922;28;1700;-41
2021/11/11 05:46:56;;;;;;;;;;;;;;;20.12;57.89;102597.03;5067970;28;1681;-41
2021/11/11 05:49:28;;;;;;;;;;;;;;;20.01;59.36;102602.22;5070601;28;2081;-41
2021/11/11 05:51:57;;;;;;;;;;;;;;;20.09;58.48;102604.41;5070593;28;1530;-42
2021/11/11 05:54:37;;;;;;;;;;;;;;;20.09;59.38;102612.47;5069135;28;1555;-41
2021/11/11 05:57:04;;;;;;;;;;;;;;;19.93;58.74;102610.75;5066552;28;1504;-41
2021/11/11 05:59:40;;;;;;;;;;;;;;;19.91;60.34;102614.50;5070357;28;1897;-41
2021/11/11 06:02:08;;;;;;;;;;;;;;;20.10;58.67;102596.25;5068941;28;1675;-41
2021/11/11 06:04:35;;;;;;;;;;;;;;;20.22;58.16;102606.22;5068091;28;1509;-40
2021/11/11 06:07:04;;;;;;;;;;;;;;;20.18;58.90;102604.69;5064799;28;1667;-42
2021/11/11 06:09:31;;;;;;;;;;;;;;;20.01;58.35;102605.75;5060774;28;1967;-41
2021/11/11 06:12:00;;;;;;;;;;;;;;;20.34;58.63;102609.94;5069234;28;1597;-40
2021/11/11 06:14:26;;;;;;;;;;;;;;;20.39;58.80;102596.19;5066254;28;1982;-43
2021/11/11 06:16:55;;;;;;;;;;;;;;;20.39;58.21;102605.13;5067887;28;1664;-42
2021/11/11 06:19:21;;;;;;;;;;;;;;;20.19;59.28;102608.22;5070395;28;1568;-43
2021/11/11 06:21:51;;;;;;;;;;;;;;;20.56;57.81;102603.16;5062036;28;2072;-42
2021/11/11 06:26:58;;;;;;;;;;;;;;;20.22;58.79;102602.69;5063350;28;2331;-42
2021/11/11 06:29:25;;;;;;;;;;;;;;;20.07;60.30;102607.19;5069529;28;1926;-42
2021/11/11 06:31:57;;;;;;;;;;;;;;;20.56;58.11;102614.78;5069864;28;1563;-43
2021/11/11 06:34:24;;;;;;;;;;;;;;;20.58;58.06;102610.16;5067352;28;1623;-42
2021/11/11 06:36:50;;;;;;;;;;;;;;;20.36;59.74;102588.34;5070072;28;1521;-43
2021/11/11 06:39:17;;;;;;;;;;;;;;;20.08;59.27;102611.63;5069310;28;1715;-42
2021/11/11 06:41:44;;;;;;;;;;;;;;;20.35;58.53;102594.66;5067716;28;1682;-42
2021/11/11 06:44:18;;;;;;;;;;;;;;;20.34;58.44;102595.66;5069479;28;1654;-43
2021/11/11 06:46:48;;;;;;;;;;;;;;;20.27;58.75;102601.41;5064806;28;1597;-43
2021/11/11 06:49:21;;;;;;;;;;;;;;;20.11;58.62;102605.19;5060099;28;1971;-41
2021/11/11 06:51:59;;;;;;;;;;;;;;;20.04;59.09;102594.81;5068040;28;1714;-42
2021/11/11 06:54:29;;;;;;;;;;;;;;;19.86;57.60;102586.13;5068875;28;1667;-41
2021/11/11 06:56:56;;;;;;;;;;;;;;;19.65;58.93;102577.53;5067452;28;1488;-42
2021/11/11 06:59:30;;;;;;;;;;;;;;;19.81;58.47;102590.03;5065051;28;1565;-41
2021/11/11 07:01:59;;;;;;;;;;;;;;;20.04;57.87;102583.22;5065452;28;1804;-41
2021/11/11 07:04:27;;;;;;;;;;;;;;;19.82;57.47;102587.28;5039521;28;1593;-41
2021/11/11 07:06:54;;;;;;;;;;;;;;;19.81;57.73;102577.47;5067208;28;1574;-41
2021/11/11 07:09:21;;;;;;;;;;;;;;;19.83;58.32;102570.19;5066335;28;1996;-41
2021/11/11 07:11:48;;;;;;;;;;;;;;;20.11;57.91;102579.16;5065856;28;1553;-41
2021/11/11 07:14:18;;;;;;;;;;;;;;;20.03;57.37;102558.22;5065488;28;1933;-41
2021/11/11 07:16:47;;;;;;;;;;;;;;;19.99;57.63;102585.34;5062611;28;1375;-42
2021/11/11 07:19:14;;;;;;;;;;;;;;;20.04;56.82;102557.22;5067747;28;1585;-42
2021/11/11 07:21:45;;;;;;;;;;;;;;;20.37;56.38;102555.13;5062176;28;1879;-42
2021/11/11 07:24:13;;;;;;;;;;;;;;;20.21;56.57;102555.28;5068599;28;1914;-41
2021/11/11 07:26:41;;;;;;;;;;;;;;;20.11;57.28;102552.31;5064369;28;2284;-39
2021/11/11 07:29:09;;;;;;;;;;;;;;;20.17;56.37;102551.06;5058691;28;2001;-41
2021/11/11 07:31:51;;;;;;;;;;;;;;;20.38;56.31;102548.81;5060813;28;1632;-41
2021/11/11 07:34:18;;;;;;;;;;;;;;;20.26;55.81;102550.47;5062272;28;1938;-41
2021/11/11 07:36:47;;;;;;;;;;;;;;;20.02;56.83;102553.78;5064856;28;2207;-41
2021/11/11 07:39:18;;;;;;;;;;;;;;;20.09;57.16;102532.75;5063662;28;1555;-41
2021/11/11 07:41:45;;;;;;;;;;;;;;;20.50;55.29;102544.44;5069563;28;1490;-41
2021/11/11 07:44:12;;;;;;;;;;;;;;;20.41;55.49;102532.47;5064873;28;1587;-41
2021/11/11 07:46:39;;;;;;;;;;;;;;;20.14;56.34;102522.59;5061698;28;2058;-41
2021/11/11 07:51:46;;;;;;;;;;;;;;;20.50;55.00;102537.22;5065733;28;2470;-42
2021/11/11 07:54:13;;;;;;;;;;;;;;;20.46;55.89;102541.94;5069348;28;1570;-41
2021/11/11 07:56:52;;;;;;;;;;;;;;;20.13;55.86;102533.41;5068850;28;1628;-41
2021/11/11 07:59:20;;;;;;;;;;;;;;;20.15;56.20;102532.34;5069452;28;1641;-41
2021/11/11 08:01:47;;;;;;;;;;;;;;;20.27;55.92;102528.88;5068485;28;1672;-41
2021/11/11 08:04:18;;;;;;;;;;;;;;;20.61;54.70;102523.97;5068408;28;1556;-41
2021/11/11 08:06:47;;;;;;;;;;;;;;;20.37;55.52;102512.13;5068411;28;1858;-41
2021/11/11 08:09:17;;;;;;;;;;;;;;;20.14;56.86;102511.00;5069605;28;1918;-41
2021/11/11 08:11:54;;;;;;;;;;;;;;;20.11;56.70;102511.16;5069820;28;1650;-42
2021/11/11 08:14:25;;;;;;;;;;;;;;;20.47;55.44;102505.19;5068010;28;1645;-41
2021/11/11 08:17:03;;;;;;;;;;;;;;;20.87;54.35;102529.41;5067381;28;1652;-41
2021/11/11 08:19:30;;;;;;;;;;;;;;;20.40;55.17;102514.63;5069580;28;1559;-42
2021/11/11 08:21:59;;;;;;;;;;;;;;;20.17;55.56;102519.69;5066395;28;1612;-41
2021/11/11 08:24:26;;;;;;;;;;;;;;;20.16;55.53;102509.06;5073626;28;1892;-41
2021/11/11 08:26:54;;;;;;;;;;;;;;;20.35;56.17;102508.69;5073044;28;2056;-41
2021/11/11 08:29:29;;;;;;;;;;;;;;;20.77;55.02;102512.16;5071251;28;1909;-41
2021/11/11 08:34:36;;;;;;;;;;;;;;;20.15;56.48;102504.63;5070193;28;2275;-41
2021/11/11 08:37:03;;;;;;;;;;;;;;;20.27;55.95;102475.16;5063614;28;1486;-41
2021/11/11 08:39:29;;;;;;;;;;;;;;;20.65;54.43;102482.50;5074571;28;1713;-41
2021/11/11 08:41:59;;;;;;;;;;;;;;;20.55;55.71;102492.13;5073562;28;1628;-41
2021/11/11 08:44:26;;;;;;;;;;;;;;;20.22;56.18;102489.84;5063350;28;1661;-40
2021/11/11 08:46:53;;;;;;;;;;;;;;;20.09;56.07;102488.94;5068437;28;1538;-40
2021/11/11 08:52:02;;;;;;;;;;;;;;;20.63;55.00;102481.72;5067849;28;2463;-41
2021/11/11 08:54:28;;;;;;;;;;;;;;;20.23;56.81;102476.31;5065470;28;1375;-40
2021/11/11 08:56:58;;;;;;;;;;;;;;;20.10;57.29;102479.94;5072991;28;1545;-40
2021/11/11 08:59:28;;;;;;;;;;;;;;;20.04;57.45;102471.28;5072138;28;1631;-41
2021/11/11 09:02:01;;;;;;;;;;;;;;;20.42;55.40;102470.56;5070812;28;1783;-41
2021/11/11 09:04:28;;;;;;;;;;;;;;;20.42;56.03;102472.41;5070288;28;1979;-41
2021/11/11 09:06:55;;;;;;;;;;;;;;;20.27;55.79;102467.09;5072384;28;1621;-41
2021/11/11 09:09:22;;;;;;;;;;;;;;;20.20;57.13;102455.03;5072141;28;1906;-41
2021/11/11 09:11:49;;;;;;;;;;;;;;;20.20;56.07;102449.66;5067840;28;1544;-41
2021/11/11 09:14:25;;;;;;;;;;;;;;;20.66;55.17;102438.50;5070151;28;1558;-41
2021/11/11 09:19:43;;;;;;;;;;;;;;;20.29;55.17;102458.06;5068257;28;2484;-41
2021/11/11 09:22:09;;;;;;;;;;;;;;;20.27;56.20;102450.97;5064664;28;1413;-41
2021/11/11 09:24:36;;;;;;;;;;;;;;;20.74;54.51;102431.75;5068107;28;1387;-41
2021/11/11 09:27:06;;;;;;;;;;;;;;;20.94;54.28;102428.50;5067492;28;1969;-41
2021/11/11 09:29:35;;;;;;;;;;;;;;;20.62;54.70;102428.91;5069164;28;2308;-41
2021/11/11 09:32:08;;;;;;;;;;;;;;;20.39;54.38;102418.84;5064655;28;1664;-41
2021/11/11 09:34:36;;;;;;;;;;;;;;;20.15;54.16;102438.34;5070867;28;1549;-41
2021/11/11 09:37:03;;;;;;;;;;;;;;;20.66;54.61;102405.38;5070776;28;1573;-41
2021/11/11 09:39:37;;;;;;;;;;;;;;;20.77;52.83;102405.50;5065827;28;1641;-40
2021/11/11 09:42:11;;;;;;;;;;;;;;;20.22;53.75;102407.44;5003785;28;1875;-41
2021/11/11 09:44:37;;;;;;;;;;;;;;;20.23;52.47;102435.16;5066061;28;1506;-41
2021/11/11 09:47:06;;;;;;;;;;;;;;;20.25;53.29;102415.28;5065098;28;1614;-40
2021/11/11 09:49:32;;;;;;;;;;;;;;;20.83;52.84;102388.06;5071582;28;1909;-41
2021/11/11 09:51:59;;;;;;;;;;;;;;;20.57;54.17;102392.53;5064107;28;1498;-41
2021/11/11 09:59:54;;;;;;;;;;;;;;;20.79;53.74;102381.19;5068430;28;1949;-40
2021/11/11 10:02:24;;;;;;;;;;;;;;;21.03;53.92;102374.06;5067120;28;1560;-40
2021/11/11 10:04:53;;;;;;;;;;;;;;;20.67;54.19;102361.38;5068230;28;1704;-40
2021/11/11 10:07:28;;;;;;;;;;;;;;;20.56;54.64;102367.50;5070923;28;1626;-40
2021/11/11 10:09:58;;;;;;;;;;;;;;;20.53;56.15;102362.34;5072641;28;1906;-40
2021/11/11 10:12:24;;;;;;;;;;;;;;;20.43;56.00;102347.81;5065191;28;2037;-37
2021/11/11 10:14:54;;;;;;;;;;;;;;;20.32;56.23;102342.34;5070866;28;1671;-37
2021/11/11 10:17:21;;;;;;;;;;;;;;;20.45;54.82;102346.75;5069139;28;1528;-40
2021/11/11 10:19:54;;;;;;;;;;;;;;;20.32;56.37;102334.28;5064887;28;1775;-40
2021/11/11 10:22:23;;;;;;;;;;;;;;;20.25;55.96;102332.03;5068210;28;1589;-40
2021/11/11 10:24:52;;;;;;;;;;;;;;;20.26;54.83;102336.41;5065457;28;1401;-40
2021/11/11 10:27:27;;;;;;;;;;;;;;;20.26;55.34;102331.03;5066991;28;1721;-40
2021/11/11 10:30:00;;;;;;;;;;;;;;;20.25;55.79;102329.34;5062456;28;1910;-40
2021/11/11 10:35:20;;;;;;;;;;;;;;;19.99;56.10;102322.19;5066516;28;2311;-40
2021/11/11 10:37:49;;;;;;;;;;;;;;;19.95;56.76;102326.91;5062962;28;1671;-40
2021/11/11 10:40:24;;;;;;;;;;;;;;;20.00;56.01;102315.88;5071171;28;1550;-40
2021/11/11 10:45:33;;;;;;;;;;;;;;;19.98;56.50;102290.94;5062173;28;2152;-40
2021/11/11 10:48:03;;;;;;;;;;;;;;;19.81;55.15;102308.19;5065869;28;1422;-40
2021/11/11 10:50:38;;;;;;;;;;;;;;;18.65;53.26;102296.81;5062189;28;1902;-40
2021/11/11 10:53:06;;;;;;;;;;;;;;;19.14;53.48;102297.34;5066784;28;1732;-40
2021/11/11 10:55:48;;;;;;;;;;;;;;;19.64;52.65;102322.72;5070519;28;1966;-40
2021/11/11 10:58:20;;;;;;;;;;;;;;;19.70;53.42;102295.47;5069575;28;1644;-40
2021/11/11 11:00:49;;;;;;;;;;;;;;;19.48;52.24;102280.78;5066881;28;1621;-40
2021/11/11 11:03:27;;;;;;;;;;;;;;;19.46;55.02;102279.19;5070444;28;1641;-40
2021/11/11 11:06:11;;;;;;;;;;;;;;;19.53;53.83;102283.16;5066648;28;1507;-40
2021/11/11 11:08:42;;;;;;;;;;;;;;;19.62;53.62;102289.75;5068924;28;1472;-40
2021/11/11 11:11:10;;;;;;;;;;;;;;;19.43;52.51;102272.16;5069396;28;1948;-40
2021/11/11 11:13:40;;;;;;;;;;;;;;;19.42;53.08;102277.66;5071240;28;1287;-40
2021/11/11 11:16:22;;;;;;;;;;;;;;;19.35;53.52;102279.00;5067137;28;1518;-40
2021/11/11 11:19:04;;;;;;;;;;;;;;;19.37;52.90;102263.69;5063671;28;1585;-40
2021/11/11 11:21:36;;;;;;;;;;;;;;;19.33;52.21;102280.94;5067627;28;1608;-41
2021/11/11 11:24:07;;;;;;;;;;;;;;;19.28;52.68;102271.38;5061990;28;1518;-40
2021/11/11 11:26:42;;;;;;;;;;;;;;;19.30;54.19;102271.28;5066178;28;1491;-40
2021/11/11 11:29:14;;;;;;;;;;;;;;;19.60;52.92;102263.00;5068053;28;1482;-40
2021/11/11 11:32:04;;;;;;;;;;;;;;;19.38;52.72;102252.00;5069936;28;1901;-40
2021/11/11 11:34:31;;;;;;;;;;;;;;;19.12;51.39;102257.25;5068066;28;1930;-41
2021/11/11 11:37:15;;;;;;;;;;;;;;;19.17;51.11;102254.25;5064462;28;1592;-40
2021/11/11 11:39:47;;;;;;;;;;;;;;;19.08;52.03;102243.19;5066114;28;1412;-40
2021/11/11 11:42:16;;;;;;;;;;;;;;;19.12;52.62;102242.97;5070613;28;1966;-40
2021/11/11 11:44:44;;;;;;;;;;;;;;;19.20;51.37;102233.47;5068935;28;1554;-41
2021/11/11 11:47:17;;;;;;;;;;;;;;;19.12;51.26;102240.28;5066086;28;1513;-40
2021/11/11 11:49:49;;;;;;;;;;;;;;;19.15;51.65;102242.78;5065720;28;1546;-40
2021/11/11 11:52:17;;;;;;;;;;;;;;;19.33;50.80;102228.16;5063921;28;1473;-40
2021/11/11 11:54:53;;;;;;;;;;;;;;;19.25;50.49;102230.47;5070333;28;1533;-40
2021/11/11 11:57:28;;;;;;;;;;;;;;;19.10;50.87;102216.28;5066278;28;2124;-40
2021/11/11 11:59:58;;;;;;;;;;;;;;;19.12;52.35;102219.72;5064587;28;1517;-40
2021/11/11 12:05:41;;;;;;;;;;;;;;;19.32;50.04;102207.66;5048101;28;1708;-40
2021/11/11 12:08:30;;;;;;;;;;;;;;;19.34;50.25;102184.28;5066351;28;2100;-40
2021/11/11 12:11:27;;;;;;;;;;;;;;;19.15;51.38;102194.50;5065650;28;1971;-40
2021/11/11 12:13:57;;;;;;;;;;;;;;;19.12;51.87;102187.53;5068053;28;1641;-40
2021/11/11 12:39:37;;;;;;;;;;;;;;;18.98;52.20;102177.72;5070331;28;1405;-40
2021/11/11 12:42:06;;;;;;;;;;;;;;;19.24;51.34;102188.53;5067518;28;1696;-40
2021/11/11 12:44:54;;;;;;;;;;;;;;;19.24;51.60;102193.91;5062482;28;1668;-40
2021/11/11 12:47:33;;;;;;;;;;;;;;;19.24;50.83;102177.81;5067921;28;1682;-40
2021/11/11 12:53:26;;;;;;;;;;;;;;;18.91;50.70;102162.13;5063655;28;1950;-40
2021/11/11 12:56:11;;;;;;;;;;;;;;;18.96;51.27;102163.56;5068336;28;1514;-40
2021/11/11 12:58:42;;;;;;;;;;;;;;;19.00;49.92;102177.59;5056878;28;1875;-40
2021/11/11 13:03:55;;;;;;;;;;;;;;;18.94;50.65;102154.75;5067200;28;2384;-40
2021/11/11 13:06:35;;;;;;;;;;;;;;;18.91;51.04;102152.28;5061465;28;1702;-40
2021/11/11 13:09:07;;;;;;;;;;;;;;;18.90;53.10;102149.69;5071384;28;1577;-40
2021/11/11 13:11:36;;;;;;;;;;;;;;;18.92;52.35;102154.00;5068266;28;1906;-40
2021/11/11 13:14:24;;;;;;;;;;;;;;;18.97;51.47;102156.38;5073415;28;1692;-40
2021/11/11 13:17:16;;;;;;;;;;;;;;;18.93;51.42;102149.50;5065820;28;1515;-41
2021/11/11 13:19:45;;;;;;;;;;;;;;;18.88;51.67;102152.50;5062631;28;1585;-40
2021/11/11 13:22:17;;;;;;;;;;;;;;;18.90;51.32;102144.31;5068311;28;1565;-41
2021/11/11 13:24:56;;;;;;;;;;;;;;;18.82;50.65;102143.03;5067428;28;1515;-40
2021/11/11 14:01:27;;;;;;;;;;;;;;;18.61;51.07;102123.81;5063410;28;1596;-40
2021/11/11 15:17:06;;;;;;;;;;;;;;;20.01;54.35;102083.97;5040174;28;1645;-30
2021/11/11 16:01:52;;;;;;;;;;;;;;;20.67;55.24;102097.97;5063359;28;2099;-32
2021/11/11 16:21:01;;;;;;;;;;;;;;;20.73;55.48;102102.91;5064209;28;1789;-32
2021/11/11 16:23:45;;;;;;;;;;;;;;;20.43;56.00;102100.59;5063030;28;1525;-31
2021/11/11 16:26:21;;;;;;;;;;;;;;;20.27;55.47;102096.38;5065676;28;1531;-31
2021/11/11 16:28:52;;;;;;;;;;;;;;;20.57;55.98;102089.72;5061992;28;1552;-31
2021/11/11 16:31:19;;;;;;;;;;;;;;;20.91;54.66;102100.69;5069266;28;1914;-31
2021/11/11 16:33:45;;;;;;;;;;;;;;;20.69;56.42;102114.00;5064748;28;1766;-31
2021/11/11 16:36:12;;;;;;;;;;;;;;;20.35;56.29;102093.13;5065442;28;1704;-32
2021/11/11 16:38:39;;;;;;;;;;;;;;;20.35;56.56;102108.38;5070426;28;1579;-31
2021/11/11 16:41:11;;;;;;;;;;;;;;;20.71;56.29;102099.47;5071194;28;2013;-31
2021/11/11 16:43:42;;;;;;;;;;;;;;;20.79;56.11;102109.63;5071716;28;1722;-31
2021/11/11 16:46:09;;;;;;;;;;;;;;;20.54;55.96;102102.53;5066627;28;1654;-32
2021/11/11 16:48:36;;;;;;;;;;;;;;;20.33;56.60;102110.31;5066307;28;1928;-32
2021/11/11 16:51:04;;;;;;;;;;;;;;;20.62;55.68;102111.75;5070180;28;1979;-32
2021/11/11 16:53:38;;;;;;;;;;;;;;;20.89;55.60;102104.44;5070527;28;1429;-32
2021/11/11 16:56:05;;;;;;;;;;;;;;;20.68;56.08;102114.97;5067763;28;2081;-32
2021/11/11 16:58:32;;;;;;;;;;;;;;;20.52;56.86;102108.00;5067280;28;1545;-33
2021/11/11 17:01:01;;;;;;;;;;;;;;;20.34;57.74;102117.41;5064958;28;1501;-32
2021/11/11 17:03:30;;;;;;;;;;;;;;;20.69;56.98;102111.31;5065525;28;1795;-32
2021/11/11 17:06:00;;;;;;;;;;;;;;;20.90;56.46;102119.59;5069424;28;1577;-32
2021/11/11 17:08:26;;;;;;;;;;;;;;;20.58;57.31;102110.25;5068126;28;1441;-32
2021/11/11 17:11:00;;;;;;;;;;;;;;;20.26;58.70;102102.72;5064173;28;1906;-32
2021/11/11 17:13:28;;;;;;;;;;;;;;;20.55;57.90;102107.78;5067558;28;1293;-32
2021/11/11 17:15:55;;;;;;;;;;;;;;;20.86;57.19;102097.47;5067659;28;1913;-32
2021/11/11 17:18:26;;;;;;;;;;;;;;;20.63;57.77;102102.75;5063570;28;1697;-32
2021/11/11 17:21:03;;;;;;;;;;;;;;;20.39;57.68;102094.63;5067838;28;1630;-32
2021/11/11 17:23:35;;;;;;;;;;;;;;;20.31;58.28;102088.06;5071022;28;1506;-32
2021/11/11 17:26:21;;;;;;;;;;;;;;;20.24;59.84;102085.84;5066453;28;1493;-31
2021/11/11 17:28:50;;;;;;;;;;;;;;;20.08;60.42;102090.63;5066661;28;1661;-32
2021/11/11 17:31:19;;;;;;;;;;;;;;;20.21;60.56;102086.09;5060611;28;2263;-31
2021/11/11 17:33:49;;;;;;;;;;;;;;;20.74;58.80;102088.47;5065869;28;1679;-32
2021/11/11 17:36:23;;;;;;;;;;;;;;;20.65;58.73;102073.91;5064712;28;1628;-32
2021/11/11 17:38:53;;;;;;;;;;;;;;;20.23;60.42;102073.41;5070175;28;1516;-32
2021/11/11 17:41:24;;;;;;;;;;;;;;;20.15;59.71;102086.50;5065627;28;1908;-32
2021/11/11 17:43:54;;;;;;;;;;;;;;;20.62;58.08;102081.34;5068771;28;1535;-32